South Wilmington, IL (60474)

2:33 AM CDT on August 24, 2016 (GMT -0500)
Lake Shannon | | Change Station

Elev 591 ft 41.15 °N, 88.23 °W | Updated 3 minutes ago

Overcast
Overcast
67.8 °F
Feels Like 67.8 °F
N
0.0
Wind Variable Wind from SSW

Today
High -- | Low -- °F
--% Chance of Precip.
Yesterday
High -- | Low -- °F
Precip. -- in
Pressure 30.06 in
Visibility 10.0 miles
Clouds Mostly Cloudy 2200 ft
Overcast 9500 ft
Dew Point 63 °F
Humidity 84%
Rainfall 0.00 in
Snow Depth Not available.
6:12 AM 7:37 PM
Waning Gibbous, 60% visible
METAR KC09 240715Z AUTO 16004KT 10SM BKN022 OVC095 21/19 A3006 RMK AO2 LTG DSNT N AND NW T02050186
Pressure 30.06 in
Visibility 10.0 miles
Clouds Mostly Cloudy 2200 ft
Overcast 9500 ft
Dew Point 63 °F
Humidity 84%
Rainfall 0.00 in
Snow Depth Not available.
6:12 AM 7:37 PM
Waning Gibbous, 60% visible
METAR KC09 240715Z AUTO 16004KT 10SM BKN022 OVC095 21/19 A3006 RMK AO2 LTG DSNT N AND NW T02050186

10-Day Weather Forecast

Almanac

Astronomy

Aug. 24, 2016 Rise Set
Actual Time
Civil Twilight
Nautical Twilight
Astronomical Twilight
Moon
Length of Visible Light
Length of Day
Tomorrow will be .
, % of the Moon is Illuminated

Today's Extremes

State Highs State Lows

Community

WunderPhotos

Upload Photos

1,934,554 photos uploaded!

WunderBlog® & News

Nearby

Air Quality

  Air Quality AQ Index Pollutant
Not available.

Snow Depth

Station Depth Elevation

Earthquake Activity

City Distance Mag. Time & Date
Minimum magnitude displayed is 2.5.

Coastal Water Temperatures

Place Temperature

Stations

Nearby Weather Stations

Station Location Temp. Windchill Dew Point Humidity Wind Precip. Elev Updated Type
                   

Watches & Warnings

There are currently no watches in effect.